Time;durP1;ratioP1;P1;durP2;ratioP2;P2;SDS_P1;SDS_P2;PMS_P1;PMS_P2;Temp;Humidity;BMP_temperature;BMP_pressure;BME280_temperature;BME280_humidity;BME280_pressure;Samples;Min_cycle;Max_cycle;Signal;HPM_P1;HPM_P2
2024/04/10 00:03:26;;;;;;;8.80;1.30;;;;;;;14.51;83.77;100261.30;180304;1260;43571;-69
2024/04/10 00:07:30;;;;;;;1.40;0.30;;;;;;;14.47;84.72;100271.85;180510;1260;58228;-69
2024/04/10 00:11:33;;;;;;;1.70;0.40;;;;;;;14.40;86.87;100278.59;180333;1261;43777;-68
2024/04/10 00:15:37;;;;;;;6.70;1.10;;;;;;;14.33;87.56;100287.11;180554;1260;45914;-70
2024/04/10 00:19:40;;;;;;;1.10;0.90;;;;;;;14.20;81.27;100287.64;180471;1260;45930;-70
2024/04/10 00:23:45;;;;;;;5.90;0.30;;;;;;;14.13;77.57;100298.02;180573;1260;43526;-70
2024/04/10 00:27:48;;;;;;;3.20;0.50;;;;;;;13.95;75.30;100299.66;180550;1259;58024;-70
2024/04/10 00:32:11;;;;;;;1.70;0.30;;;;;;;13.88;74.24;100301.59;180581;1259;44286;-69
2024/04/10 00:36:14;;;;;;;4.70;0.40;;;;;;;13.84;74.36;100307.83;180361;1261;45916;-68
2024/04/10 00:40:18;;;;;;;10.30;0.80;;;;;;;13.80;74.61;100332.52;180506;1260;44881;-68
2024/04/10 00:44:21;;;;;;;2.90;1.30;;;;;;;13.76;83.81;100332.27;180478;1260;43775;-71
2024/04/10 00:48:36;;;;;;;1.50;1.40;;;;;;;13.54;92.98;100342.58;180324;1260;59811;-72
2024/04/10 00:52:39;;;;;;;4.50;0.70;;;;;;;13.27;96.01;100356.73;180395;1259;46047;-69
2024/04/10 00:56:42;;;;;;;3.20;0.70;;;;;;;13.04;97.43;100369.52;180523;1259;43618;-69
2024/04/10 01:00:49;;;;;;;2.00;1.40;;;;;;;12.78;99.13;100380.45;180474;1259;44963;-69
2024/04/10 01:04:52;;;;;;;4.30;1.40;;;;;;;12.62;99.87;100386.80;180270;1260;43887;-69
2024/04/10 01:08:55;;;;;;;3.50;1.40;;;;;;;12.41;100.00;100390.90;180196;1259;59854;-69
2024/04/10 01:13:02;;;;;;;6.10;2.30;;;;;;;12.26;100.00;100409.13;180284;1259;44604;-69
2024/04/10 01:17:05;;;;;;;4.40;2.20;;;;;;;12.18;100.00;100418.32;180373;1260;44218;-70
2024/04/10 01:21:09;;;;;;;18.00;2.50;;;;;;;12.14;100.00;100433.31;180400;1259;43806;-69
2024/04/10 01:25:12;;;;;;;2.90;2.10;;;;;;;12.05;100.00;100439.17;180324;1259;45945;-68
2024/04/10 01:30:05;;;;;;;3.10;2.40;;;;;;;11.96;100.00;100447.34;180223;1263;57933;-70
2024/04/10 01:34:08;;;;;;;6.70;3.30;;;;;;;11.91;100.00;100465.76;180317;1259;44658;-70
2024/04/10 01:38:12;;;;;;;5.60;2.90;;;;;;;11.90;100.00;100462.81;180214;1259;45951;-70
2024/04/10 01:42:15;;;;;;;5.30;3.40;;;;;;;11.77;100.00;100469.80;180233;1260;45995;-70
2024/04/10 01:46:17;;;;;;;5.80;2.50;;;;;;;11.72;100.00;100466.08;180418;1260;44662;-70
2024/04/10 01:50:20;;;;;;;7.50;3.80;;;;;;;11.68;100.00;100473.72;180181;1259;58342;-69
2024/04/10 01:54:23;;;;;;;10.90;2.60;;;;;;;11.67;100.00;100488.17;180209;1259;46042;-69
2024/04/10 01:58:26;;;;;;;8.30;3.50;;;;;;;11.56;100.00;100497.77;180259;1259;43616;-69
2024/04/10 02:02:29;;;;;;;5.00;3.50;;;;;;;11.52;100.00;100494.50;180188;1259;46026;-69
2024/04/10 02:06:32;;;;;;;4.10;2.40;;;;;;;11.47;100.00;100509.34;180219;1259;45238;-70
2024/04/10 02:10:35;;;;;;;4.60;2.30;;;;;;;11.42;100.00;100506.71;180150;1259;58263;-70
2024/04/10 02:14:38;;;;;;;7.40;1.70;;;;;;;11.40;100.00;100523.95;180165;1259;46144;-69
2024/04/10 02:18:42;;;;;;;3.80;2.20;;;;;;;11.30;100.00;100527.91;180108;1263;44623;-72
2024/04/10 02:22:45;;;;;;;9.70;3.00;;;;;;;11.27;100.00;100533.88;180106;1259;44552;-69
2024/04/10 02:26:47;;;;;;;3.30;2.30;;;;;;;11.21;100.00;100537.90;180225;1259;43721;-70
2024/04/10 02:30:50;;;;;;;4.30;2.70;;;;;;;11.19;100.00;100544.28;180318;1259;58160;-69
2024/04/10 02:34:53;;;;;;;2.60;2.30;;;;;;;11.21;100.00;100563.42;180137;1259;45934;-70
2024/04/10 02:38:56;;;;;;;2.30;2.00;;;;;;;11.11;100.00;100572.74;180052;1259;44729;-71
2024/04/10 02:43:05;;;;;;;10.40;3.60;;;;;;;11.03;100.00;100579.83;179996;1259;46045;-69
2024/04/10 02:47:07;;;;;;;5.50;2.30;;;;;;;10.99;100.00;100581.16;180255;1259;43779;-70
2024/04/10 02:51:11;;;;;;;6.00;2.60;;;;;;;11.00;100.00;100586.27;180238;1259;58188;-69
2024/04/10 02:55:17;;;;;;;3.40;2.70;;;;;;;10.94;100.00;100594.66;180192;1259;44607;-69
2024/04/10 02:59:20;;;;;;;6.10;3.20;;;;;;;10.95;100.00;100598.31;180240;1259;45987;-69
2024/04/10 03:03:25;;;;;;;5.10;3.00;;;;;;;10.89;100.00;100605.57;180195;1259;44573;-70
2024/04/10 03:07:28;;;;;;;4.20;2.40;;;;;;;10.81;100.00;100609.69;180130;1259;44184;-70
2024/04/10 03:11:31;;;;;;;7.40;2.50;;;;;;;10.79;100.00;100623.35;180247;1259;58571;-71
2024/04/10 03:15:34;;;;;;;4.30;2.80;;;;;;;10.76;100.00;100626.74;180263;1259;46133;-69
2024/04/10 03:19:38;;;;;;;13.20;4.30;;;;;;;10.72;100.00;100630.09;180013;1259;46083;-70
2024/04/10 03:23:41;;;;;;;6.40;2.60;;;;;;;10.67;100.00;100643.54;180250;1259;44869;-69
2024/04/10 03:27:44;;;;;;;5.80;2.40;;;;;;;10.66;100.00;100651.11;180086;1259;44824;-70
2024/04/10 03:31:47;;;;;;;3.70;2.50;;;;;;;10.63;100.00;100661.29;180106;1260;59637;-71
2024/04/10 03:35:50;;;;;;;3.70;2.30;;;;;;;10.51;100.00;100665.05;180210;1260;43740;-70
2024/04/10 03:39:53;;;;;;;4.70;3.30;;;;;;;10.45;100.00;100666.86;180229;1259;45123;-68
2024/04/10 03:43:56;;;;;;;4.90;2.90;;;;;;;10.40;100.00;100676.60;180083;1259;46161;-73
2024/04/10 03:47:59;;;;;;;8.30;4.20;;;;;;;10.39;100.00;100674.37;180221;1259;45980;-72
2024/04/10 03:52:03;;;;;;;8.40;3.50;;;;;;;10.47;100.00;100677.92;180141;1259;56932;-71
2024/04/10 03:56:06;;;;;;;6.10;3.70;;;;;;;10.43;100.00;100690.39;180191;1259;44551;-70
2024/04/10 04:00:09;;;;;;;3.40;3.00;;;;;;;10.48;100.00;100692.70;180229;1260;43688;-69
2024/04/10 04:04:36;;;;;;;8.80;3.70;;;;;;;10.55;100.00;100700.31;180343;1259;44614;-69
2024/04/10 04:08:39;;;;;;;5.30;3.10;;;;;;;10.61;100.00;100707.02;180224;1259;44097;-72
2024/04/10 04:12:42;;;;;;;8.60;3.20;;;;;;;10.67;100.00;100721.45;180348;1260;59362;-76
2024/04/10 04:16:56;;;;;;;4.00;2.50;;;;;;;10.62;100.00;100729.44;180348;1259;47595;-70
2024/04/10 04:20:59;;;;;;;3.20;2.40;;;;;;;10.67;100.00;100738.30;180388;1259;43880;-70
2024/04/10 04:25:02;;;;;;;4.90;3.10;;;;;;;10.65;100.00;100748.06;180323;1259;45973;-75
2024/04/10 04:29:05;;;;;;;3.00;2.00;;;;;;;10.67;100.00;100758.35;180195;1259;46002;-69
2024/04/10 04:33:17;;;;;;;2.80;1.90;;;;;;;10.66;100.00;100762.67;180016;1259;58235;-71
2024/04/10 04:37:21;;;;;;;4.70;1.70;;;;;;;10.64;100.00;100778.44;180083;1260;46043;-73
2024/04/10 04:41:26;;;;;;;3.40;2.30;;;;;;;10.60;100.00;100786.19;180230;1259;45912;-68
2024/04/10 04:45:29;;;;;;;4.10;1.80;;;;;;;10.62;100.00;100796.52;180121;1259;45973;-71
2024/04/10 04:49:32;;;;;;;11.30;2.70;;;;;;;10.55;100.00;100800.54;180228;1259;45908;-77
2024/04/10 04:53:35;;;;;;;3.50;2.40;;;;;;;10.57;100.00;100809.96;180208;1259;58000;-76
2024/04/10 04:57:38;;;;;;;5.90;2.40;;;;;;;10.66;100.00;100807.92;181484;1259;43642;-74
2024/04/10 05:01:41;;;;;;;4.80;3.30;;;;;;;10.59;100.00;100820.79;181447;1259;43129;-70
2024/04/10 05:05:44;;;;;;;9.00;3.70;;;;;;;10.61;100.00;100836.12;181332;1259;43205;-70
2024/04/10 05:09:49;;;;;;;4.10;2.40;;;;;;;10.54;100.00;100838.01;181461;1259;43437;-73
2024/04/10 05:13:53;;;;;;;9.10;3.70;;;;;;;10.56;100.00;100839.67;181462;1260;57814;-75
2024/04/10 05:17:56;;;;;;;8.20;2.90;;;;;;;10.52;100.00;100847.23;181364;1260;43296;-69
2024/04/10 05:21:59;;;;;;;7.80;3.30;;;;;;;10.49;100.00;100848.01;181273;1262;43782;-70
2024/04/10 05:26:03;;;;;;;5.90;2.70;;;;;;;10.41;100.00;100853.65;181369;1260;43691;-71
2024/04/10 05:30:07;;;;;;;5.80;3.90;;;;;;;10.32;100.00;100855.50;181326;1260;43733;-72
2024/04/10 05:34:10;;;;;;;7.50;3.40;;;;;;;10.39;100.00;100863.04;181297;1261;58615;-69
2024/04/10 05:38:13;;;;;;;9.50;4.20;;;;;;;10.38;100.00;100864.85;181431;1259;43718;-73
2024/04/10 05:42:16;;;;;;;13.60;5.20;;;;;;;10.36;100.00;100866.08;181348;1260;43742;-73
2024/04/10 05:46:19;;;;;;;16.00;4.80;;;;;;;10.31;100.00;100874.89;181324;1259;44025;-69
2024/04/10 05:50:22;;;;;;;4.70;3.60;;;;;;;10.29;100.00;100884.25;181392;1260;43797;-73
2024/04/10 05:54:25;;;;;;;4.60;3.10;;;;;;;10.25;100.00;100890.55;181234;1261;57949;-70
2024/04/10 05:58:28;;;;;;;5.40;3.40;;;;;;;10.21;100.00;100896.55;181277;1262;43350;-69
2024/04/10 06:02:31;;;;;;;10.20;4.40;;;;;;;10.25;100.00;100906.58;181438;1260;43823;-70
2024/04/10 06:06:34;;;;;;;5.20;3.80;;;;;;;10.24;100.00;100918.66;181467;1260;43676;-72
2024/04/10 06:10:39;;;;;;;4.30;3.20;;;;;;;10.20;100.00;100921.94;181325;1259;43680;-74
2024/04/10 06:14:41;;;;;;;2.90;2.20;;;;;;;10.23;100.00;100931.53;180785;1270;58564;-67
2024/04/10 06:19:35;;;;;;;6.80;2.10;;;;;;;10.18;100.00;100937.89;180812;1269;43760;-68
2024/04/10 06:23:41;;;;;;;2.60;2.40;;;;;;;10.18;100.00;100945.48;179582;1272;196787;-68
2024/04/10 06:27:44;;;;;;;3.00;2.40;;;;;;;10.08;100.00;100952.19;178915;1281;43080;-68
2024/04/10 06:31:47;;;;;;;2.10;1.30;;;;;;;10.07;100.00;100957.80;179113;1279;43057;-69
2024/04/10 06:35:54;;;;;;;4.40;2.00;;;;;;;10.07;100.00;100962.95;179008;1279;59204;-68
2024/04/10 06:39:57;;;;;;;7.80;2.80;;;;;;;10.04;100.00;100966.64;178844;1283;43832;-68
2024/04/10 06:44:26;;;;;;;2.20;1.70;;;;;;;10.00;100.00;100969.91;178565;1283;43094;-68
2024/04/10 06:48:30;;;;;;;3.50;2.20;;;;;;;10.03;100.00;100972.93;178676;1283;43115;-68
2024/04/10 06:53:23;;;;;;;3.90;2.50;;;;;;;10.09;100.00;100982.83;178745;1283;43001;-68
2024/04/10 06:57:27;;;;;;;7.50;3.00;;;;;;;10.18;100.00;100992.52;178594;1285;58302;-68
2024/04/10 07:01:29;;;;;;;3.70;1.50;;;;;;;10.22;100.00;100998.02;178250;1285;43482;-68
2024/04/10 07:05:33;;;;;;;4.00;1.60;;;;;;;10.29;100.00;100992.39;178240;1286;43764;-68
2024/04/10 07:09:48;;;;;;;1.20;1.10;;;;;;;10.37;100.00;100996.11;178166;1285;43865;-68
2024/04/10 07:13:53;;;;;;;2.80;1.80;;;;;;;10.44;100.00;100992.46;178077;1285;43346;-68
2024/04/10 07:25:36;;;;;;;4.80;1.50;;;;;;;10.64;100.00;101000.31;151330;1291;93523;-65
2024/04/10 07:29:42;;;;;;;5.20;1.60;;;;;;;10.57;100.00;101009.70;178894;1271;43857;-67
2024/04/10 07:33:49;;;;;;;1.10;0.90;;;;;;;10.56;100.00;101012.95;179084;1269;207068;-67
2024/04/10 07:38:19;;;;;;;;;;;;;;;10.53;100.00;101017.56;179855;1262;46078;-67
2024/04/10 07:42:22;;;;;;;2.80;1.10;;;;;;;10.52;100.00;101022.77;179945;1262;45703;-68
2024/04/10 07:46:25;;;;;;;5.10;1.50;;;;;;;10.53;100.00;101021.64;179818;1260;58028;-68
2024/04/10 07:50:31;;;;;;;1.50;0.80;;;;;;;10.56;100.00;101026.08;179940;1262;44839;-66
2024/04/10 07:54:38;;;;;;;2.60;1.40;;;;;;;10.53;100.00;101027.66;179867;1262;44392;-67
2024/04/10 07:59:00;;;;;;;5.90;1.40;;;;;;;10.50;100.00;101035.55;179846;1260;46327;-68
2024/04/10 08:03:04;;;;;;;4.20;1.90;;;;;;;10.50;100.00;101042.81;179829;1263;44722;-69
2024/04/10 08:37:42;;;;;;;3.00;1.40;;;;;;;10.70;100.00;101085.42;180583;1264;93538;-66
2024/04/10 08:41:48;;;;;;;1.40;1.10;;;;;;;10.67;100.00;101090.42;180558;1263;92375;-65
2024/04/10 08:45:51;;;;;;;3.90;1.60;;;;;;;10.70;100.00;101099.26;180225;1265;45978;-66
2024/04/10 08:50:55;;;;;;;3.40;1.50;;;;;;;10.67;100.00;101104.39;180006;1262;58422;-65
2024/04/10 08:55:05;;;;;;;3.40;2.30;;;;;;;10.74;100.00;101110.28;180183;1262;43507;-66
2024/04/10 08:59:51;;;;;;;6.60;2.40;;;;;;;10.81;100.00;101115.01;179433;1268;43751;-67
2024/04/10 09:03:54;;;;;;;5.30;1.70;;;;;;;10.86;100.00;101122.11;179189;1268;45982;-68
2024/04/10 09:08:01;;;;;;;3.20;2.30;;;;;;;10.89;100.00;101125.05;179252;1269;43644;-67
2024/04/10 09:12:04;;;;;;;;;;;;;;;10.86;100.00;101139.63;178922;1269;57893;-67
2024/04/10 09:16:07;;;;;;;3.10;1.60;;;;;;;10.91;100.00;101151.73;179477;1263;45456;-68
2024/04/10 09:20:17;;;;;;;2.20;1.50;;;;;;;11.00;100.00;101161.42;179920;1263;43700;-69
2024/04/10 09:24:25;;;;;;;3.80;2.00;;;;;;;11.11;100.00;101167.77;180035;1262;43588;-69
2024/04/10 09:28:29;;;;;;;7.70;3.20;;;;;;;11.16;100.00;101164.92;180088;1263;43698;-69
2024/04/10 09:32:37;;;;;;;2.10;1.30;;;;;;;11.24;100.00;101170.55;180076;1262;59059;-69
2024/04/10 09:36:44;;;;;;;1.80;1.00;;;;;;;11.29;100.00;101179.98;180056;1263;45994;-69
2024/04/10 09:41:02;;;;;;;2.20;1.50;;;;;;;11.34;100.00;101179.27;180129;1263;46032;-69
2024/04/10 09:45:15;;;;;;;3.50;1.40;;;;;;;11.28;100.00;101185.41;180081;1263;43676;-68
2024/04/10 09:49:35;;;;;;;4.50;1.60;;;;;;;11.32;100.00;101187.04;179942;1262;44749;-67
2024/04/10 09:53:39;;;;;;;4.20;1.70;;;;;;;11.38;100.00;101185.73;179846;1261;58281;-68
2024/04/10 09:57:45;;;;;;;6.20;2.90;;;;;;;11.49;100.00;101190.09;179991;1263;45901;-67
2024/04/10 10:01:54;;;;;;;16.30;4.90;;;;;;;11.59;100.00;101196.54;179858;1263;44673;-67
2024/04/10 10:10:49;;;;;;;8.10;6.60;;;;;;;11.48;100.00;101209.77;179978;1262;45023;-68
2024/04/10 10:14:53;;;;;;;11.90;5.60;;;;;;;11.41;100.00;101210.02;179961;1263;57652;-69
2024/04/10 10:19:05;;;;;;;11.50;6.50;;;;;;;11.44;100.00;101217.45;180035;1263;45921;-68
2024/04/10 10:23:24;;;;;;;17.00;11.70;;;;;;;11.58;100.00;101217.23;180072;1262;46029;-68
2024/04/10 10:27:26;;;;;;;19.30;9.90;;;;;;;11.72;100.00;101210.52;179946;1262;44968;-69
2024/04/10 10:31:31;;;;;;;11.00;6.60;;;;;;;11.80;100.00;101214.36;179998;1263;43605;-68
2024/04/10 10:35:34;;;;;;;6.90;5.30;;;;;;;11.88;100.00;101206.02;179901;1263;57972;-68
2024/04/10 10:39:44;;;;;;;5.80;4.30;;;;;;;11.95;100.00;101211.05;180016;1263;43731;-68
2024/04/10 10:43:59;;;;;;;6.80;3.60;;;;;;;12.03;100.00;101215.27;180073;1264;46607;-68
2024/04/10 10:48:06;;;;;;;3.90;3.50;;;;;;;12.24;100.00;101221.23;180019;1263;43620;-68
2024/04/10 10:52:11;;;;;;;3.30;2.50;;;;;;;12.35;100.00;101225.59;180019;1262;46310;-68
2024/04/10 10:56:25;;;;;;;3.80;3.00;;;;;;;12.38;100.00;101228.21;179680;1262;58240;-68
2024/04/10 11:00:33;;;;;;;10.20;3.10;;;;;;;12.53;100.00;101240.77;179901;1262;46000;-68
2024/04/10 11:04:36;;;;;;;7.10;3.60;;;;;;;12.66;99.84;101242.27;179860;1263;46098;-63
2024/04/10 11:08:42;;;;;;;5.00;4.10;;;;;;;12.89;99.84;101240.56;180029;1263;43799;-65
2024/04/10 11:12:45;;;;;;;9.30;3.70;;;;;;;13.08;98.54;101234.00;179666;1263;45240;-66
2024/04/10 11:16:59;;;;;;;4.20;3.70;;;;;;;13.13;96.77;101235.00;179688;1262;59248;-66
2024/04/10 11:21:02;;;;;;;7.50;3.50;;;;;;;13.36;97.69;101230.05;179628;1263;45005;-67
2024/04/10 11:25:07;;;;;;;4.00;3.50;;;;;;;13.46;95.10;101234.59;179909;1262;46013;-66
2024/04/10 11:29:11;;;;;;;5.90;4.20;;;;;;;13.46;94.54;101234.48;179768;1262;45978;-66
2024/04/10 11:33:16;;;;;;;6.10;4.70;;;;;;;13.46;93.70;101234.05;179910;1263;45126;-67
2024/04/10 11:37:19;;;;;;;5.80;4.50;;;;;;;13.57;93.65;101235.55;179849;1263;57995;-68
2024/04/10 11:41:23;;;;;;;5.40;3.70;;;;;;;13.68;93.47;101245.34;179851;1262;46010;-67
2024/04/10 11:45:26;;;;;;;5.30;4.70;;;;;;;13.65;93.61;101259.87;179734;1262;46080;-66
2024/04/10 11:49:31;;;;;;;4.10;3.30;;;;;;;14.04;93.43;101264.78;179935;1263;45854;-66
2024/04/10 11:53:35;;;;;;;5.50;3.90;;;;;;;14.18;90.12;101268.84;179942;1262;45958;-66
2024/04/10 11:57:45;;;;;;;10.80;5.10;;;;;;;14.39;89.77;101268.02;179733;1262;59741;-66
2024/04/10 12:01:49;;;;;;;7.90;4.30;;;;;;;14.53;88.78;101268.69;179742;1262;45898;-66
2024/04/10 12:05:52;;;;;;;8.00;4.40;;;;;;;14.64;88.12;101275.94;179867;1262;43779;-67
2024/04/10 12:09:56;;;;;;;11.40;4.40;;;;;;;14.52;86.72;101276.40;179927;1263;45218;-67
2024/04/10 12:14:12;;;;;;;6.70;2.90;;;;;;;14.70;85.84;101275.44;179782;1262;44047;-67
2024/04/10 12:18:15;;;;;;;14.60;3.30;;;;;;;14.74;82.45;101269.48;180068;1262;58507;-67
2024/04/10 12:22:19;;;;;;;4.60;2.40;;;;;;;14.82;83.54;101268.79;179872;1262;45844;-67
2024/04/10 12:26:23;;;;;;;4.20;2.00;;;;;;;14.83;83.50;101268.23;179942;1262;45988;-67
2024/04/10 12:30:27;;;;;;;3.20;2.20;;;;;;;14.97;83.84;101271.70;180000;1262;46060;-67
2024/04/10 12:34:31;;;;;;;5.10;3.10;;;;;;;15.00;80.18;101281.94;179997;1263;45894;-66
2024/04/10 12:38:35;;;;;;;5.00;2.70;;;;;;;15.01;82.00;101281.69;179914;1262;57348;-66
2024/04/10 12:42:40;;;;;;;;;;;;;;;15.08;80.05;101284.13;180078;1262;44068;-66
2024/04/10 12:46:53;;;;;;;4.20;2.50;;;;;;;15.05;83.09;101278.30;179999;1262;45911;-67
2024/04/10 12:51:15;;;;;;;2.70;2.40;;;;;;;15.25;82.07;101278.77;180027;1265;43781;-67
2024/04/10 12:55:20;;;;;;;11.70;2.90;;;;;;;15.16;80.52;101283.61;179869;1262;45071;-67
2024/04/10 12:59:24;;;;;;;3.70;2.60;;;;;;;15.20;80.03;101279.31;179814;1263;58969;-67
2024/04/10 13:03:30;;;;;;;6.20;2.90;;;;;;;15.21;81.09;101282.69;179956;1262;44855;-67
2024/04/10 13:07:34;;;;;;;4.80;2.90;;;;;;;15.30;80.15;101286.34;179997;1262;44222;-67
2024/04/10 13:11:37;;;;;;;6.00;2.70;;;;;;;15.40;78.67;101281.64;179849;1263;45346;-66
2024/04/10 13:15:41;;;;;;;7.20;2.40;;;;;;;15.36;78.10;101287.30;179769;1263;46114;-67
2024/04/10 13:19:47;;;;;;;;;;;;;;;15.30;78.09;101288.33;179775;1261;58268;-66
2024/04/10 13:23:52;;;;;;;22.30;4.60;;;;;;;15.25;79.19;101291.80;179821;1262;45780;-67
2024/04/10 13:28:01;;;;;;;3.10;2.40;;;;;;;15.08;79.44;101297.15;179975;1262;45895;-67
2024/04/10 13:32:04;;;;;;;4.30;3.50;;;;;;;15.02;79.32;101301.44;179922;1262;46029;-67
2024/04/10 13:36:16;;;;;;;3.90;2.50;;;;;;;14.91;80.52;101302.34;179785;1263;43801;-67
2024/04/10 13:40:21;;;;;;;5.80;3.80;;;;;;;14.80;82.21;101303.48;179932;1262;59111;-67
2024/04/10 13:44:28;;;;;;;4.30;3.70;;;;;;;14.94;83.13;101306.89;180111;1262;46142;-67
2024/04/10 13:48:38;;;;;;;5.80;2.60;;;;;;;15.04;82.04;101312.30;179977;1263;44703;-67
2024/04/10 13:52:43;;;;;;;3.30;2.70;;;;;;;15.08;80.31;101313.43;179939;1262;43940;-67
2024/04/10 13:56:47;;;;;;;5.10;2.70;;;;;;;15.21;81.87;101313.58;179887;1262;44675;-66
2024/04/10 14:00:54;;;;;;;7.90;3.20;;;;;;;15.30;80.74;101311.21;179942;1262;58909;-68
2024/04/10 14:05:29;;;;;;;9.20;3.60;;;;;;;15.70;81.56;101307.27;180092;1263;45947;-66
2024/04/10 14:09:32;;;;;;;4.50;3.80;;;;;;;15.93;81.57;101299.70;180150;1263;43521;-67
2024/04/10 14:13:37;;;;;;;4.50;3.20;;;;;;;16.02;78.86;101305.79;179980;1262;43922;-67
2024/04/10 14:17:42;;;;;;;7.50;4.10;;;;;;;15.94;79.31;101307.39;179841;1262;45955;-66
2024/04/10 14:21:45;;;;;;;4.60;3.10;;;;;;;15.89;80.21;101308.10;179823;1262;58496;-67
2024/04/10 14:25:53;;;;;;;4.60;3.20;;;;;;;15.92;79.99;101311.12;179919;1262;46096;-66
2024/04/10 14:29:57;;;;;;;3.60;3.00;;;;;;;15.80;81.10;101308.92;179680;1263;43529;-66
2024/04/10 14:34:00;;;;;;;4.70;3.80;;;;;;;15.59;79.19;101310.04;179699;1262;43605;-65
2024/04/10 14:38:06;;;;;;;15.00;4.30;;;;;;;15.32;80.19;101305.49;179718;1263;45049;-66
2024/04/10 14:42:08;;;;;;;3.50;3.20;;;;;;;15.25;82.26;101304.27;179698;1263;58420;-66
2024/04/10 14:46:13;;;;;;;6.60;4.20;;;;;;;15.16;81.63;101308.27;179793;1263;44061;-66
2024/04/10 14:50:32;;;;;;;4.20;2.40;;;;;;;15.19;81.53;101304.42;179758;1262;45002;-67
2024/04/10 14:54:36;;;;;;;5.90;2.80;;;;;;;15.08;78.14;101303.45;179721;1262;43699;-66
2024/04/10 14:58:40;;;;;;;4.70;3.20;;;;;;;15.17;80.26;101309.66;179702;1262;43925;-66
2024/04/10 15:02:51;;;;;;;5.20;2.60;;;;;;;15.21;79.70;101316.94;179597;1262;57788;-67
2024/04/10 15:06:55;;;;;;;5.10;2.30;;;;;;;15.26;78.32;101319.23;179809;1262;43764;-66
2024/04/10 15:10:59;;;;;;;2.80;2.30;;;;;;;15.30;78.50;101321.60;179746;1262;43898;-66
2024/04/10 15:15:27;;;;;;;7.80;2.50;;;;;;;15.45;81.95;101322.86;179805;1263;43770;-66
2024/04/10 15:19:34;;;;;;;5.50;2.10;;;;;;;15.57;79.04;101320.73;179978;1262;43731;-67
2024/04/10 15:23:40;;;;;;;5.60;2.60;;;;;;;15.47;77.62;101324.56;179833;1262;59680;-66
2024/04/10 15:27:46;;;;;;;8.30;3.20;;;;;;;15.39;80.42;101329.97;180080;1259;44932;-66
2024/04/10 15:31:49;;;;;;;3.90;2.10;;;;;;;15.36;78.74;101333.59;180062;1259;43812;-66
2024/04/10 15:36:05;;;;;;;3.90;2.80;;;;;;;15.32;78.00;101340.15;179976;1259;46160;-67
2024/04/10 15:40:10;;;;;;;4.70;2.60;;;;;;;15.27;79.99;101344.52;179954;1258;43641;-67
2024/04/10 15:44:14;;;;;;;3.70;2.60;;;;;;;15.27;79.37;101345.41;179910;1260;58439;-67
2024/04/10 15:48:17;;;;;;;4.00;2.00;;;;;;;15.02;78.44;101349.33;180011;1259;43625;-67
2024/04/10 15:52:23;;;;;;;7.60;3.40;;;;;;;14.96;80.90;101355.98;179977;1259;44639;-67
2024/04/10 15:56:33;;;;;;;2.90;2.10;;;;;;;14.81;84.12;101354.55;179965;1259;44743;-67
2024/04/10 16:00:40;;;;;;;5.10;2.00;;;;;;;14.63;84.66;101358.73;180001;1259;43546;-68
2024/04/10 16:04:43;;;;;;;9.50;3.70;;;;;;;14.51;86.29;101365.89;180125;1259;58226;-66
2024/04/10 16:08:49;;;;;;;8.00;2.70;;;;;;;14.44;85.96;101374.70;179927;1259;45941;-66
2024/04/10 16:12:53;;;;;;;8.90;3.90;;;;;;;14.42;82.22;101378.25;179792;1259;44710;-65
2024/04/10 16:16:57;;;;;;;6.00;2.60;;;;;;;14.50;79.20;101378.73;179892;1259;43868;-67
2024/04/10 16:21:10;;;;;;;;;;;;;;;14.56;79.37;101388.40;180053;1259;45108;-66
2024/04/10 16:25:35;;;;;;;7.20;4.40;;;;;;;14.55;80.52;101397.52;180032;1259;57477;-67
2024/04/10 16:29:41;;;;;;;7.50;4.10;;;;;;;14.55;81.88;101403.27;180020;1259;44775;-66
2024/04/10 16:33:45;;;;;;;5.00;4.10;;;;;;;14.50;79.68;101409.89;179886;1259;46025;-66
2024/04/10 16:37:51;;;;;;;9.60;3.10;;;;;;;14.39;79.95;101415.23;179874;1259;45892;-66
2024/04/10 16:41:54;;;;;;;5.30;2.70;;;;;;;14.32;80.09;101422.20;179821;1259;44593;-67
2024/04/10 16:45:59;;;;;;;9.10;2.50;;;;;;;14.19;82.60;101436.67;179947;1260;58792;-66
2024/04/10 16:50:10;;;;;;;4.00;2.30;;;;;;;14.03;83.84;101436.98;179749;1259;46022;-66
2024/04/10 16:54:13;;;;;;;7.20;2.20;;;;;;;13.93;85.00;101446.11;179996;1259;46109;-65
2024/04/10 16:58:18;;;;;;;4.30;3.00;;;;;;;13.87;86.20;101445.70;179904;1259;43898;-65
2024/04/10 17:02:21;;;;;;;6.00;2.80;;;;;;;13.85;86.32;101447.11;179976;1259;46094;-65
2024/04/10 17:06:37;;;;;;;6.30;3.60;;;;;;;13.89;86.03;101451.29;179777;1259;58535;-65
2024/04/10 17:10:40;;;;;;;7.10;3.00;;;;;;;13.94;82.53;101454.78;179954;1259;45851;-65
2024/04/10 17:14:52;;;;;;;3.50;2.30;;;;;;;14.02;81.41;101462.70;179841;1261;44598;-65
2024/04/10 17:23:19;;;;;;;6.10;2.60;;;;;;;14.08;81.05;101475.87;179999;1259;45917;-65
2024/04/10 17:27:23;;;;;;;5.00;1.90;;;;;;;14.06;82.44;101485.11;179984;1259;58927;-66
2024/04/10 17:31:28;;;;;;;6.50;2.60;;;;;;;14.02;81.40;101491.64;179945;1259;43912;-65
2024/04/10 17:35:31;;;;;;;4.50;2.40;;;;;;;13.98;80.97;101496.91;180127;1259;45938;-65
2024/04/10 17:39:42;;;;;;;6.50;2.90;;;;;;;13.93;81.30;101499.66;179937;1259;46111;-66
2024/04/10 17:43:50;;;;;;;2.80;2.20;;;;;;;13.88;83.93;101507.83;179960;1260;45915;-65
2024/04/10 17:48:00;;;;;;;4.20;2.00;;;;;;;13.77;84.69;101511.02;180108;1259;58701;-65
2024/04/10 17:52:05;;;;;;;3.10;2.10;;;;;;;13.64;84.20;101515.52;179846;1259;44992;-65
2024/04/10 17:56:16;;;;;;;3.50;2.50;;;;;;;13.58;84.42;101519.73;180120;1259;46116;-66
2024/04/10 18:00:20;;;;;;;7.40;3.00;;;;;;;13.51;83.97;101526.11;179861;1259;44692;-65
2024/04/10 18:04:29;;;;;;;3.80;2.60;;;;;;;13.37;84.24;101540.14;179833;1259;44925;-65
2024/04/10 18:08:34;;;;;;;3.70;3.20;;;;;;;13.20;84.68;101546.48;179788;1260;58406;-66
2024/04/10 18:12:40;;;;;;;6.10;2.90;;;;;;;13.01;85.32;101551.06;179948;1262;44255;-65
2024/04/10 18:16:43;;;;;;;3.50;2.70;;;;;;;12.88;85.94;101565.52;179835;1259;45488;-66
2024/04/10 18:21:26;;;;;;;6.50;2.70;;;;;;;12.80;85.70;101569.51;180029;1259;44548;-66
2024/04/10 18:25:29;;;;;;;4.90;2.80;;;;;;;12.68;86.23;101580.65;179930;1259;44941;-65
2024/04/10 18:29:33;;;;;;;3.70;2.70;;;;;;;12.64;87.69;101590.17;180020;1260;58325;-65
2024/04/10 18:33:37;;;;;;;4.80;2.60;;;;;;;12.60;88.90;101589.94;179982;1259;44852;-65
2024/04/10 18:37:41;;;;;;;4.80;2.90;;;;;;;12.56;89.30;101593.05;179906;1261;46007;-65
2024/04/10 18:41:45;;;;;;;4.90;3.90;;;;;;;12.52;90.32;101595.46;179984;1259;43728;-66
2024/04/10 18:45:58;;;;;;;6.20;4.20;;;;;;;12.48;91.60;101598.23;180067;1259;44045;-66
2024/04/10 18:50:01;;;;;;;7.20;4.50;;;;;;;12.48;91.71;101608.72;180098;1259;58833;-66
2024/04/10 18:54:05;;;;;;;9.50;4.70;;;;;;;12.50;92.21;101615.00;180146;1258;43941;-65
2024/04/10 18:58:10;;;;;;;6.90;4.70;;;;;;;12.50;92.70;101621.00;180012;1259;44228;-67
2024/04/10 19:02:14;;;;;;;8.70;5.00;;;;;;;12.49;93.28;101626.27;180040;1259;45356;-66
2024/04/10 19:06:23;;;;;;;7.60;4.80;;;;;;;12.46;93.12;101631.45;179917;1259;45908;-66
2024/04/10 19:10:27;;;;;;;6.30;4.60;;;;;;;12.39;93.64;101635.97;179839;1259;58718;-66
2024/04/10 19:14:35;;;;;;;7.60;4.60;;;;;;;12.35;94.43;101642.67;179995;1259;45125;-67
2024/04/10 19:18:42;;;;;;;4.70;3.60;;;;;;;12.30;94.58;101645.50;180000;1259;45909;-66
2024/04/10 19:22:48;;;;;;;6.50;4.00;;;;;;;12.19;95.51;101648.91;179924;1259;43818;-66
2024/04/10 19:26:57;;;;;;;8.80;4.70;;;;;;;12.06;95.51;101657.22;179856;1259;43760;-67
2024/04/10 19:31:05;;;;;;;7.50;3.70;;;;;;;11.97;95.63;101654.75;179953;1259;60267;-67
2024/04/10 19:35:12;;;;;;;4.80;4.40;;;;;;;11.88;95.19;101661.05;180092;1259;43710;-67
2024/04/10 19:39:16;;;;;;;7.10;4.00;;;;;;;11.76;96.46;101663.92;180114;1259;43637;-66